createdAt,value
2018-01-19T00:00:54.249Z,95551.34
2018-01-19T00:03:20.291Z,95548.14
2018-01-19T00:05:46.287Z,95551.01
2018-01-19T00:08:12.301Z,95552.75
2018-01-19T00:10:38.413Z,95546.95
2018-01-19T00:13:04.411Z,95547.75
2018-01-19T00:15:30.464Z,95546.06
2018-01-19T00:17:56.548Z,95539.70
2018-01-19T00:20:22.623Z,95529.40
2018-01-19T00:22:48.652Z,95539.86
2018-01-19T00:25:14.663Z,95545.64
2018-01-19T00:27:40.697Z,95547.61
2018-01-19T00:30:06.704Z,95546.55
2018-01-19T00:32:32.725Z,95550.41
2018-01-19T00:34:59.096Z,95560.97
2018-01-19T00:37:25.089Z,95556.77
2018-01-19T00:39:51.119Z,95565.27
2018-01-19T00:42:17.139Z,95557.92
2018-01-19T00:44:43.161Z,95559.42
2018-01-19T00:47:09.281Z,95562.55
2018-01-19T00:49:35.270Z,95561.48
2018-01-19T00:52:01.276Z,95556.04
2018-01-19T00:54:27.314Z,95558.17
2018-01-19T00:56:53.309Z,95564.38
2018-01-19T00:59:19.343Z,95569.82
2018-01-19T01:01:45.315Z,95572.17
2018-01-19T01:04:11.356Z,95570.83
2018-01-19T01:06:37.376Z,95567.60
2018-01-19T01:09:03.352Z,95556.72
2018-01-19T01:11:29.408Z,95555.86
2018-01-19T01:13:55.369Z,95549.73
2018-01-19T01:16:21.369Z,95556.28
2018-01-19T01:18:47.660Z,95555.55
2018-01-19T01:21:13.652Z,95541.88
2018-01-19T01:23:39.621Z,95539.52
2018-01-19T01:26:05.564Z,95545.67
2018-01-19T01:28:31.585Z,95544.36
2018-01-19T01:30:57.616Z,95550.52
2018-01-19T01:33:23.633Z,95548.55
2018-01-19T01:35:49.635Z,95558.19
2018-01-19T01:38:15.688Z,95550.19
2018-01-19T01:40:41.711Z,95548.36
2018-01-19T01:43:07.744Z,95554.00
2018-01-19T01:45:33.783Z,95551.25
2018-01-19T01:47:59.797Z,95551.17
2018-01-19T01:50:25.816Z,95550.55
2018-01-19T01:52:51.869Z,95548.57
2018-01-19T01:55:17.847Z,95551.84
2018-01-19T01:57:43.843Z,95547.10
2018-01-19T02:00:09.876Z,95539.75
2018-01-19T02:02:35.895Z,95549.26
2018-01-19T02:05:01.973Z,95551.28
2018-01-19T02:07:28.025Z,95552.66
2018-01-19T02:09:54.053Z,95548.53
2018-01-19T02:12:20.089Z,95554.72
2018-01-19T02:14:46.109Z,95549.95
2018-01-19T02:17:12.101Z,95548.63
2018-01-19T02:19:38.297Z,95559.44
2018-01-19T02:22:04.277Z,95561.94
2018-01-19T02:24:30.277Z,95566.36
2018-01-19T02:26:56.296Z,95575.02
2018-01-19T02:29:22.337Z,95582.28
2018-01-19T02:31:48.712Z,95585.11
2018-01-19T02:34:14.745Z,95594.66
2018-01-19T02:36:40.756Z,95594.64
2018-01-19T02:39:06.855Z,95595.74
2018-01-19T02:41:32.895Z,95595.50
2018-01-19T02:43:58.945Z,95593.52
2018-01-19T02:46:24.969Z,95587.16
2018-01-19T02:48:51.045Z,95585.32
2018-01-19T02:51:17.034Z,95578.23
2018-01-19T02:53:43.033Z,95561.03
2018-01-19T02:56:09.365Z,95557.94
2018-01-19T02:58:35.368Z,95556.73
2018-01-19T03:01:01.393Z,95554.27
2018-01-19T03:03:27.443Z,95525.14
2018-01-19T03:05:53.444Z,95517.39
2018-01-19T03:08:19.493Z,95531.22
2018-01-19T03:10:45.505Z,95546.70
2018-01-19T03:13:11.524Z,95552.49
2018-01-19T03:15:37.540Z,95555.68
2018-01-19T03:18:03.561Z,95579.70
2018-01-19T03:20:29.575Z,95583.69
2018-01-19T03:22:55.567Z,95587.16
2018-01-19T03:25:21.604Z,95578.23
2018-01-19T03:27:47.623Z,95578.50
2018-01-19T03:30:13.661Z,95580.19
2018-01-19T03:32:39.724Z,95577.03
2018-01-19T03:35:05.714Z,95583.98
2018-01-19T03:37:31.723Z,95580.41
2018-01-19T03:39:57.745Z,95580.22
2018-01-19T03:42:23.718Z,95573.51
2018-01-19T03:44:49.810Z,95566.70
2018-01-19T03:47:15.892Z,95568.34
2018-01-19T03:49:41.905Z,95578.33
2018-01-19T03:52:07.984Z,95592.46
2018-01-19T03:54:33.966Z,95594.30
2018-01-19T03:56:59.997Z,95590.73
2018-01-19T03:59:26.016Z,95586.63
2018-01-19T04:01:52.009Z,95582.34
2018-01-19T04:04:18.028Z,95586.24
2018-01-19T04:06:44.064Z,95589.95
2018-01-19T04:09:10.044Z,95576.77
2018-01-19T04:11:36.101Z,95577.61
2018-01-19T04:14:02.585Z,95580.89
2018-01-19T04:16:28.630Z,95567.05
2018-01-19T04:18:54.932Z,95556.58
2018-01-19T04:21:20.933Z,95552.19
2018-01-19T04:23:46.957Z,95554.36
2018-01-19T04:26:13.069Z,95551.69
2018-01-19T04:28:39.087Z,95558.14
2018-01-19T04:31:05.072Z,95568.47
2018-01-19T04:33:31.108Z,95574.55
2018-01-19T04:35:57.123Z,95570.06
2018-01-19T04:38:23.137Z,95572.86
2018-01-19T04:40:49.173Z,95557.25
2018-01-19T04:43:15.236Z,95563.38
2018-01-19T04:45:41.616Z,95572.87
2018-01-19T04:48:08.044Z,95585.52
2018-01-19T04:50:34.152Z,95585.91
2018-01-19T04:53:00.475Z,95588.55
2018-01-19T04:55:26.428Z,95586.73
2018-01-19T04:57:52.471Z,95592.52
2018-01-19T05:00:18.512Z,95589.86
2018-01-19T05:02:44.522Z,95584.41
2018-01-19T05:05:10.552Z,95593.14
2018-01-19T05:07:36.588Z,95589.28
2018-01-19T05:10:02.623Z,95594.54
2018-01-19T05:12:29.045Z,95598.69
2018-01-19T05:14:55.077Z,95597.53
2018-01-19T05:17:21.088Z,95597.61
2018-01-19T05:19:47.080Z,95600.36
2018-01-19T05:22:13.095Z,95604.98
2018-01-19T05:24:39.143Z,95599.44
2018-01-19T05:27:05.193Z,95603.39
2018-01-19T05:29:31.227Z,95611.02
2018-01-19T05:31:57.209Z,95615.55
2018-01-19T05:34:23.215Z,95624.67
2018-01-19T05:36:49.240Z,95627.66
2018-01-19T05:39:15.248Z,95625.48
2018-01-19T05:41:41.329Z,95632.67
2018-01-19T05:44:07.471Z,95632.58
2018-01-19T05:46:33.481Z,95638.95
2018-01-19T05:48:59.463Z,95633.50
2018-01-19T05:51:25.503Z,95630.12
2018-01-19T05:53:51.532Z,95635.86
2018-01-19T05:56:17.543Z,95641.83
2018-01-19T05:58:43.942Z,95647.04
2018-01-19T06:01:10.045Z,95649.16
2018-01-19T06:03:36.017Z,95653.64
2018-01-19T06:06:02.113Z,95649.41
2018-01-19T06:08:28.128Z,95666.92
2018-01-19T06:10:54.168Z,95661.80
2018-01-19T06:13:20.216Z,95671.02
2018-01-19T06:15:46.216Z,95674.69
2018-01-19T06:18:12.224Z,95681.38
2018-01-19T06:20:38.315Z,95685.34
2018-01-19T06:23:04.337Z,95693.22
2018-01-19T06:25:30.381Z,95695.23
2018-01-19T06:27:56.369Z,95692.16
2018-01-19T06:30:22.796Z,95708.50
2018-01-19T06:32:48.897Z,95715.98
2018-01-19T06:35:14.975Z,95724.93
2018-01-19T06:37:41.051Z,95733.98
2018-01-19T06:40:07.064Z,95745.59
2018-01-19T06:42:33.149Z,95749.30
2018-01-19T06:44:59.169Z,95763.09
2018-01-19T06:47:25.212Z,95762.56
2018-01-19T06:49:51.292Z,95759.36
2018-01-19T06:52:17.612Z,95774.49
2018-01-19T06:54:43.632Z,95769.39
2018-01-19T06:57:09.629Z,95767.14
2018-01-19T06:59:35.664Z,95779.65
2018-01-19T07:02:01.724Z,95793.90
2018-01-19T07:04:28.060Z,95793.98
2018-01-19T07:06:54.072Z,95807.66
2018-01-19T07:09:20.077Z,95801.80
2018-01-19T07:11:46.089Z,95813.09
2018-01-19T07:14:12.076Z,95817.48
2018-01-19T07:16:38.042Z,95831.13
2018-01-19T07:19:04.008Z,95830.41
2018-01-19T07:21:29.966Z,95842.61
2018-01-19T07:23:56.007Z,95847.39
2018-01-19T07:26:22.012Z,95851.80
2018-01-19T07:28:48.305Z,95856.77
2018-01-19T07:31:14.367Z,95870.27
2018-01-19T07:33:40.371Z,95874.48
2018-01-19T07:36:06.404Z,95881.97
2018-01-19T07:38:32.461Z,95880.97
2018-01-19T07:40:58.517Z,95850.94
2018-01-19T07:43:24.528Z,95883.60
2018-01-19T07:45:50.625Z,95885.53
2018-01-19T07:48:16.659Z,95885.44
2018-01-19T07:50:42.701Z,95898.11
2018-01-19T07:53:08.768Z,95909.33
2018-01-19T07:55:34.779Z,95912.84
2018-01-19T07:58:00.832Z,95915.44
2018-01-19T08:00:26.867Z,95924.20
2018-01-19T08:02:52.928Z,95930.83
2018-01-19T08:05:18.924Z,95940.48
2018-01-19T08:07:44.900Z,95949.47
2018-01-19T08:10:11.001Z,95950.41
2018-01-19T08:12:37.000Z,95950.92
2018-01-19T08:15:04.240Z,95958.38
2018-01-19T08:17:30.260Z,95967.34
2018-01-19T08:19:56.361Z,95977.31
2018-01-19T08:22:22.384Z,95977.95
2018-01-19T08:24:48.426Z,95979.98
2018-01-19T08:27:14.580Z,95991.77
2018-01-19T08:29:40.607Z,95992.64
2018-01-19T08:32:06.708Z,95997.19
2018-01-19T08:34:32.765Z,95997.95
2018-01-19T08:36:58.809Z,95999.33
2018-01-19T08:39:24.836Z,95999.14
2018-01-19T08:41:50.884Z,96002.94
2018-01-19T08:44:16.998Z,95998.30
2018-01-19T08:46:43.079Z,95987.27
2018-01-19T08:49:09.103Z,95990.11
2018-01-19T08:51:35.282Z,95994.41
2018-01-19T08:54:01.336Z,95995.70
2018-01-19T08:56:27.371Z,96006.13
2018-01-19T08:58:53.444Z,96009.14
2018-01-19T09:01:19.447Z,96020.72
2018-01-19T09:03:45.458Z,96016.34
2018-01-19T09:06:11.485Z,96020.58
2018-01-19T09:08:37.508Z,96025.39
2018-01-19T09:11:03.568Z,96026.81
2018-01-19T09:13:29.629Z,96034.01
2018-01-19T09:15:55.669Z,96035.31
2018-01-19T09:18:21.672Z,96043.30
2018-01-19T09:20:47.696Z,96046.00
2018-01-19T09:23:13.689Z,96048.97
2018-01-19T09:25:40.021Z,96059.27
2018-01-19T09:28:06.005Z,96048.19
2018-01-19T09:30:31.998Z,96061.37
2018-01-19T09:32:58.035Z,96071.29
2018-01-19T09:35:24.003Z,96065.54
2018-01-19T09:37:50.048Z,96074.20
2018-01-19T09:40:16.052Z,96078.56
2018-01-19T09:42:42.057Z,96063.82
2018-01-19T09:45:08.118Z,96075.78
2018-01-19T09:47:34.109Z,96072.70
2018-01-19T09:50:00.137Z,96076.03
2018-01-19T09:52:26.167Z,96073.19
2018-01-19T09:54:52.180Z,96062.50
2018-01-19T09:57:18.221Z,96076.63
2018-01-19T09:59:44.197Z,96065.41
2018-01-19T10:02:10.204Z,96077.35
2018-01-19T10:04:36.248Z,96075.03
2018-01-19T10:07:02.245Z,96079.91
2018-01-19T10:09:28.260Z,96080.25
2018-01-19T10:11:54.239Z,96072.70
2018-01-19T10:14:20.219Z,96074.87
2018-01-19T10:16:46.265Z,96081.27
2018-01-19T10:19:12.219Z,96064.72
2018-01-19T10:21:38.252Z,96074.64
2018-01-19T10:24:04.388Z,96063.96
2018-01-19T10:26:30.435Z,96061.35
2018-01-19T10:28:56.469Z,96067.05
2018-01-19T10:31:22.504Z,96063.90
2018-01-19T10:33:48.600Z,96056.30
2018-01-19T10:36:14.568Z,96066.91
2018-01-19T10:38:40.684Z,96064.97
2018-01-19T10:41:06.724Z,96070.00
2018-01-19T10:43:32.724Z,96075.06
2018-01-19T10:45:58.848Z,96063.33
2018-01-19T10:48:24.844Z,96073.15
2018-01-19T10:50:50.862Z,96063.66
2018-01-19T10:53:16.885Z,96077.30
2018-01-19T10:55:43.008Z,96078.61
2018-01-19T10:58:09.024Z,96091.00
2018-01-19T11:00:35.096Z,96080.26
2018-01-19T11:03:01.156Z,96093.17
2018-01-19T11:05:27.196Z,96084.95
2018-01-19T11:07:53.244Z,96080.20
2018-01-19T11:10:19.333Z,96092.23
2018-01-19T11:12:45.396Z,96081.02
2018-01-19T11:15:11.389Z,96087.00
2018-01-19T11:17:37.461Z,96092.05
2018-01-19T11:20:03.708Z,96092.68
2018-01-19T11:22:29.723Z,96087.70
2018-01-19T11:24:55.768Z,96099.45
2018-01-19T11:27:21.805Z,96096.13
2018-01-19T11:29:47.796Z,96092.13
2018-01-19T11:32:13.772Z,96106.59
2018-01-19T11:34:39.757Z,96107.83
2018-01-19T11:37:05.840Z,96105.98
2018-01-19T11:39:31.853Z,96121.14
2018-01-19T11:41:57.865Z,96120.16
2018-01-19T11:44:23.857Z,96114.83
2018-01-19T11:46:50.302Z,96113.23
2018-01-19T11:49:16.377Z,96116.82
2018-01-19T11:51:42.443Z,96102.42
2018-01-19T11:54:08.533Z,96105.29
2018-01-19T11:56:34.564Z,96117.04
2018-01-19T11:59:00.583Z,96111.64
2018-01-19T12:01:26.609Z,96121.37
2018-01-19T12:03:52.618Z,96119.47
2018-01-19T12:06:18.617Z,96118.91
2018-01-19T12:08:44.603Z,96125.11
2018-01-19T12:11:10.649Z,96118.86
2018-01-19T12:13:36.642Z,96126.50
2018-01-19T12:16:02.653Z,96139.20
2018-01-19T12:18:28.815Z,96141.84
2018-01-19T12:20:54.833Z,96146.89
2018-01-19T12:23:20.925Z,96140.25
2018-01-19T12:25:46.952Z,96139.59
2018-01-19T12:28:12.958Z,96149.41
2018-01-19T12:30:38.987Z,96144.47
2018-01-19T12:33:05.016Z,96149.48
2018-01-19T12:35:31.026Z,96143.84
2018-01-19T12:37:57.072Z,96156.59
2018-01-19T12:40:23.077Z,96158.03
2018-01-19T12:42:49.102Z,96158.28
2018-01-19T12:45:15.085Z,96159.53
2018-01-19T12:47:41.046Z,96163.51
2018-01-19T12:50:07.082Z,96165.97
2018-01-19T12:52:33.086Z,96162.67
2018-01-19T12:54:59.121Z,96151.88
2018-01-19T12:57:25.122Z,96160.88
2018-01-19T12:59:51.280Z,96161.02
2018-01-19T13:02:17.278Z,96163.62
2018-01-19T13:04:43.300Z,96161.35
2018-01-19T13:07:09.351Z,96161.29
2018-01-19T13:09:35.356Z,96159.17
2018-01-19T13:12:01.353Z,96155.09
2018-01-19T13:14:27.403Z,96163.99
2018-01-19T13:16:53.476Z,96161.03
2018-01-19T13:19:19.553Z,96157.34
2018-01-19T13:21:45.558Z,96166.64
2018-01-19T13:24:11.569Z,96154.82
2018-01-19T13:26:37.569Z,96156.91
2018-01-19T13:29:03.639Z,96164.41
2018-01-19T13:31:29.717Z,96167.23
2018-01-19T13:33:55.748Z,96157.50
2018-01-19T13:36:21.741Z,96158.10
2018-01-19T13:38:47.777Z,96159.69
2018-01-19T13:41:13.920Z,96161.52
2018-01-19T13:43:39.964Z,96171.65
2018-01-19T13:46:06.083Z,96177.53
2018-01-19T13:48:32.210Z,96178.73
2018-01-19T13:50:58.232Z,96179.44
2018-01-19T13:53:24.283Z,96181.09
2018-01-19T13:55:50.813Z,96188.78
2018-01-19T13:58:16.863Z,96188.14
2018-01-19T14:00:43.079Z,96193.22
2018-01-19T14:03:09.154Z,96187.55
2018-01-19T14:05:35.265Z,96190.86
2018-01-19T14:08:01.301Z,96193.55
2018-01-19T14:10:27.304Z,96193.41
2018-01-19T14:12:53.404Z,96192.06
2018-01-19T14:15:19.453Z,96181.66
2018-01-19T14:17:45.477Z,96186.24
2018-01-19T14:20:11.704Z,96187.91
2018-01-19T14:22:37.705Z,96181.20
2018-01-19T14:25:03.916Z,96183.84
2018-01-19T14:27:29.947Z,96176.41
2018-01-19T14:29:56.049Z,96176.55
2018-01-19T14:32:22.242Z,96176.30
2018-01-19T14:34:48.290Z,96177.24
2018-01-19T14:37:14.325Z,96177.24
2018-01-19T14:39:40.466Z,96182.04
2018-01-19T14:42:06.493Z,96182.25
2018-01-19T14:44:32.541Z,96193.47
2018-01-19T14:46:58.558Z,96190.48
2018-01-19T14:49:24.636Z,96200.00
2018-01-19T14:51:50.770Z,96203.48
2018-01-19T14:54:16.819Z,96208.74
2018-01-19T14:56:42.841Z,96211.70
2018-01-19T14:59:08.864Z,96208.11
2018-01-19T15:01:34.935Z,96215.66
2018-01-19T15:04:01.010Z,96214.06
2018-01-19T15:06:27.072Z,96221.08
2018-01-19T15:08:53.208Z,96217.09
2018-01-19T15:11:19.232Z,96223.09
2018-01-19T15:13:45.698Z,96226.61
2018-01-19T15:16:11.791Z,96225.22
2018-01-19T15:18:38.216Z,96224.58
2018-01-19T15:21:04.320Z,96235.37
2018-01-19T15:23:30.353Z,96230.09
2018-01-19T15:25:56.413Z,96234.22
2018-01-19T15:28:22.438Z,96231.64
2018-01-19T15:30:48.513Z,96243.03
2018-01-19T15:33:14.507Z,96241.69
2018-01-19T15:35:40.557Z,96245.14
2018-01-19T15:38:06.612Z,96252.63
2018-01-19T15:40:32.656Z,96256.48
2018-01-19T15:42:58.661Z,96252.38
2018-01-19T15:45:24.692Z,96254.69
2018-01-19T15:47:50.891Z,96262.22
2018-01-19T15:50:17.384Z,96262.60
2018-01-19T15:52:43.437Z,96266.97
2018-01-19T15:55:09.546Z,96267.11
2018-01-19T15:57:35.526Z,96275.00
2018-01-19T16:00:01.833Z,96281.30
2018-01-19T16:02:27.857Z,96279.50
2018-01-19T16:04:53.954Z,96283.05
2018-01-19T16:07:20.369Z,96288.94
2018-01-19T16:09:46.423Z,96288.88
2018-01-19T16:12:12.513Z,96288.22
2018-01-19T16:14:38.524Z,96283.77
2018-01-19T16:17:04.577Z,96284.61
2018-01-19T16:19:30.625Z,96286.64
2018-01-19T16:21:56.785Z,96293.83
2018-01-19T16:24:22.794Z,96293.48
2018-01-19T16:26:48.821Z,96286.35
2018-01-19T16:29:14.890Z,96292.95
2018-01-19T16:31:40.885Z,96296.37
2018-01-19T16:34:06.963Z,96295.48
2018-01-19T16:36:32.980Z,96293.59
2018-01-19T16:38:58.995Z,96296.87
2018-01-19T16:41:25.110Z,96295.81
2018-01-19T16:43:51.149Z,96290.25
2018-01-19T16:46:17.357Z,96290.14
2018-01-19T16:48:43.424Z,96297.37
2018-01-19T16:51:09.385Z,96299.06
2018-01-19T16:53:35.439Z,96295.62
2018-01-19T16:56:01.492Z,96291.84
2018-01-19T16:58:27.530Z,96295.45
2018-01-19T17:00:53.577Z,96291.66
2018-01-19T17:03:19.652Z,96299.52
2018-01-19T17:05:45.688Z,96302.49
2018-01-19T17:08:11.714Z,96302.92
2018-01-19T17:10:37.801Z,96304.15
2018-01-19T17:13:03.812Z,96301.13
2018-01-19T17:15:29.829Z,96294.37
2018-01-19T17:17:55.949Z,96309.41
2018-01-19T17:20:21.997Z,96308.83
2018-01-19T17:22:48.006Z,96308.67
2018-01-19T17:25:14.064Z,96306.58
2018-01-19T17:27:40.102Z,96308.91
2018-01-19T17:30:06.224Z,96307.74
2018-01-19T17:32:32.268Z,96301.37
2018-01-19T17:34:58.277Z,96304.62
2018-01-19T17:37:24.330Z,96302.34
2018-01-19T17:39:50.580Z,96310.03
2018-01-19T17:42:16.692Z,96296.37
2018-01-19T17:44:42.743Z,96292.69
2018-01-19T17:47:08.836Z,96280.03
2018-01-19T17:49:34.861Z,96283.10
2018-01-19T17:52:00.877Z,96283.94
2018-01-19T17:54:26.896Z,96288.63
2018-01-19T17:56:52.950Z,96281.03
2018-01-19T17:59:18.983Z,96287.53
2018-01-19T18:01:45.110Z,96281.84
2018-01-19T18:04:11.132Z,96280.34
2018-01-19T18:06:37.185Z,96282.68
2018-01-19T18:09:03.209Z,96289.06
2018-01-19T18:11:29.232Z,96287.52
2018-01-19T18:13:55.369Z,96294.02
2018-01-19T18:16:21.380Z,96284.97
2018-01-19T18:18:47.414Z,96295.09
2018-01-19T18:21:13.444Z,96297.72
2018-01-19T18:23:39.496Z,96296.28
2018-01-19T18:26:05.607Z,96295.75
2018-01-19T18:28:31.656Z,96295.52
2018-01-19T18:30:57.731Z,96293.42
2018-01-19T18:33:23.772Z,96298.38
2018-01-19T18:35:49.856Z,96294.98
2018-01-19T18:38:15.906Z,96299.53
2018-01-19T18:40:41.929Z,96282.92
2018-01-19T18:43:08.009Z,96287.63
2018-01-19T18:45:34.093Z,96284.99
2018-01-19T18:48:00.160Z,96288.38
2018-01-19T18:50:26.519Z,96282.39
2018-01-19T18:52:52.559Z,96279.53
2018-01-19T18:55:18.606Z,96284.47
2018-01-19T18:57:44.638Z,96277.10
2018-01-19T19:00:10.689Z,96276.44
2018-01-19T19:02:36.680Z,96271.52
2018-01-19T19:05:02.762Z,96275.52
2018-01-19T19:07:28.766Z,96273.41
2018-01-19T19:09:54.833Z,96272.52
2018-01-19T19:12:20.928Z,96278.88
2018-01-19T19:14:46.955Z,96277.98
2018-01-19T19:17:12.976Z,96284.06
2018-01-19T19:19:39.029Z,96287.73
2018-01-19T19:22:05.056Z,96283.06
2018-01-19T19:24:31.108Z,96282.16
2018-01-19T19:26:57.165Z,96288.92
2018-01-19T19:29:23.211Z,96289.95
2018-01-19T19:31:49.295Z,96288.67
2018-01-19T19:34:15.376Z,96293.84
2018-01-19T19:36:41.409Z,96298.41
2018-01-19T19:39:07.515Z,96304.37
2018-01-19T19:41:33.525Z,96306.34
2018-01-19T19:43:59.606Z,96308.53
2018-01-19T19:46:25.661Z,96313.88
2018-01-19T19:48:51.708Z,96306.99
2018-01-19T19:51:17.698Z,96306.72
2018-01-19T19:53:43.770Z,96314.80
2018-01-19T19:56:09.843Z,96318.04
2018-01-19T19:58:35.881Z,96305.03
2018-01-19T20:01:02.239Z,96296.06
2018-01-19T20:03:28.318Z,96295.42
2018-01-19T20:05:54.320Z,96296.45
2018-01-19T20:08:20.380Z,96296.30
2018-01-19T20:10:46.419Z,96294.48
2018-01-19T20:13:12.492Z,96301.65
2018-01-19T20:15:38.594Z,96298.39
2018-01-19T20:18:04.606Z,96299.84
2018-01-19T20:20:30.742Z,96290.45
2018-01-19T20:22:56.776Z,96287.98
2018-01-19T20:25:23.143Z,96290.33
2018-01-19T20:27:49.223Z,96287.23
2018-01-19T20:30:15.280Z,96286.06
2018-01-19T20:32:41.380Z,96287.73
2018-01-19T20:35:07.397Z,96282.67
2018-01-19T20:37:33.502Z,96280.59
2018-01-19T20:39:59.507Z,96280.59
2018-01-19T20:42:25.570Z,96287.50
2018-01-19T20:44:51.657Z,96285.53
2018-01-19T20:47:17.712Z,96288.27
2018-01-19T20:49:43.807Z,96290.88
2018-01-19T20:52:09.813Z,96288.14
2018-01-19T20:54:35.896Z,96295.81
2018-01-19T20:57:01.976Z,96302.97
2018-01-19T20:59:28.873Z,96300.86
2018-01-19T21:01:54.977Z,96294.24
2018-01-19T21:04:21.051Z,96295.53
2018-01-19T21:06:47.067Z,96292.81
2018-01-19T21:09:13.058Z,96294.63
2018-01-19T21:11:39.066Z,96292.41
2018-01-19T21:14:05.160Z,96294.37
2018-01-19T21:16:31.184Z,96288.38
2018-01-19T21:18:57.226Z,96289.42
2018-01-19T21:21:23.273Z,96290.06
2018-01-19T21:23:49.429Z,96288.38
2018-01-19T21:26:15.444Z,96293.31
2018-01-19T21:28:41.445Z,96294.25
2018-01-19T21:31:07.617Z,96290.60
2018-01-19T21:33:33.696Z,96293.84
2018-01-19T21:35:59.815Z,96299.04
2018-01-19T21:38:26.047Z,96297.09
2018-01-19T21:40:52.119Z,96303.19
2018-01-19T21:43:18.065Z,96299.55
2018-01-19T21:45:44.116Z,96306.45
2018-01-19T21:48:10.278Z,96301.51
2018-01-19T21:50:36.315Z,96302.42
2018-01-19T21:53:02.364Z,96299.98
2018-01-19T21:55:28.379Z,96306.34
2018-01-19T21:57:55.655Z,96304.37
2018-01-19T22:00:21.739Z,96305.39
2018-01-19T22:02:47.790Z,96306.15
2018-01-19T22:05:13.832Z,96310.02
2018-01-19T22:07:39.939Z,96311.28
2018-01-19T22:10:05.961Z,96313.48
2018-01-19T22:12:32.058Z,96314.81
2018-01-19T22:14:58.205Z,96313.34
2018-01-19T22:17:24.243Z,96317.67
2018-01-19T22:19:50.284Z,96309.37
2018-01-19T22:22:16.489Z,96317.94
2018-01-19T22:24:42.553Z,96308.84
2018-01-19T22:27:08.580Z,96313.94
2018-01-19T22:29:34.681Z,96319.13
2018-01-19T22:32:00.807Z,96319.39
2018-01-19T22:34:26.844Z,96328.25
2018-01-19T22:36:52.877Z,96322.25
2018-01-19T22:39:19.064Z,96323.16
2018-01-19T22:41:45.089Z,96324.84
2018-01-19T22:44:11.108Z,96328.13
2018-01-19T22:46:37.174Z,96331.89
2018-01-19T22:49:03.220Z,96329.03
2018-01-19T22:51:29.257Z,96329.94
2018-01-19T22:53:55.292Z,96321.89
2018-01-19T22:56:21.354Z,96321.23
2018-01-19T22:58:47.397Z,96338.53
2018-01-19T23:01:13.497Z,96327.39
2018-01-19T23:03:39.509Z,96322.06
2018-01-19T23:06:05.592Z,96308.80
2018-01-19T23:08:31.654Z,96309.06
2018-01-19T23:10:57.695Z,96317.78
2018-01-19T23:13:23.769Z,96327.40
2018-01-19T23:15:49.819Z,96330.23
2018-01-19T23:18:15.893Z,96331.16
2018-01-19T23:20:41.944Z,96335.70
2018-01-19T23:23:07.949Z,96328.69
2018-01-19T23:25:33.997Z,96335.83
2018-01-19T23:28:00.010Z,96332.97
2018-01-19T23:30:26.110Z,96331.67
2018-01-19T23:32:52.147Z,96340.76
2018-01-19T23:35:18.228Z,96342.71
2018-01-19T23:37:44.246Z,96340.76
2018-01-19T23:40:10.261Z,96337.90
2018-01-19T23:42:36.316Z,96330.39
2018-01-19T23:45:02.372Z,96329.87
2018-01-19T23:47:28.408Z,96323.62
2018-01-19T23:49:54.437Z,96325.69
2018-01-19T23:52:20.460Z,96324.54
2018-01-19T23:54:46.516Z,96324.39
2018-01-19T23:57:13.369Z,96332.20
2018-01-19T23:59:39.416Z,96323.19
